Bruce Mcallister — WDD5894 — position and weather

sailwx.info

Track history (hours):
 
Tides and Currents Weather Stations Pressure Air Temp Water Temp Dewpoint Dewpoint Depression Visibility Wind Speed Wind Dir Waves Ship Positions

Bruce Mcallister

Owner: McAllister Towing & Transportation Company Inc., Staten Island, NY. More information available from US FCC via Universal Licensing System and Coast Guard Vessel Documentation Center.

Last reported at 2017-Sep-24 10:00 UTC. Time now 2017-Sep-24 10:12 UTC.
Position N 40°38' W 074°10'.

Length 33 m; draft 4.9 m.

Type: Tug. MMSI: 367165430.

Date/timePositionNaut miles runAvg speedWind from/ knotsBaromVisibWave heightAir tempDewpointWater temp
2017-Sep-24 10:00N 40°38' W 074°10'0 0.0
2017-Sep-24 09:30N 40°38' W 074°10'0 0.0
2017-Sep-24 09:00N 40°38' W 074°10'0 0.0
2017-Sep-24 08:30N 40°38' W 074°10'0 0.0
2017-Sep-24 08:00N 40°38' W 074°10'0 0.0
2017-Sep-24 07:30N 40°38' W 074°10'0 0.0
2017-Sep-24 07:00N 40°38' W 074°10'0 0.0
2017-Sep-24 06:30N 40°38' W 074°10'0 0.0
2017-Sep-24 06:00N 40°38' W 074°10'0 0.0
2017-Sep-24 05:30N 40°38' W 074°10'0 0.0
2017-Sep-24 04:59N 40°38' W 074°10'0 0.0
2017-Sep-24 04:30N 40°38' W 074°10'0 0.0
2017-Sep-24 04:00N 40°38' W 074°10'0 0.0
2017-Sep-24 03:30N 40°38' W 074°10'0 0.0
2017-Sep-24 03:00N 40°38' W 074°10'0 0.0
2017-Sep-24 02:30N 40°38' W 074°10'0 0.0
2017-Sep-24 02:00N 40°38' W 074°10'0 0.0
2017-Sep-24 01:30N 40°38' W 074°10'0 0.0
2017-Sep-24 01:00N 40°38' W 074°10'0 0.0
2017-Sep-24 00:30N 40°38' W 074°10'0 0.0
2017-Sep-24 00:00N 40°38' W 074°10'0 0.0
2017-Sep-23 23:30N 40°38' W 074°10'0 0.0
2017-Sep-23 23:00N 40°38' W 074°10'0 0.0
2017-Sep-23 22:30N 40°38' W 074°10'0 0.0
2017-Sep-23 22:00N 40°38' W 074°10'0 0.0
2017-Sep-23 21:30N 40°38' W 074°10'0 0.0
2017-Sep-23 21:00N 40°38' W 074°10'0 0.0
2017-Sep-23 20:30N 40°38' W 074°10'0 0.0
2017-Sep-23 20:00N 40°38' W 074°10'6 0.1
2017-Sep-22 02:00N 40°39' W 074°02'5 9.6
2017-Sep-22 01:30N 40°39' W 074°08'1 2.3
2017-Sep-22 01:00N 40°38' W 074°10'0 0.0
2017-Sep-22 00:30N 40°38' W 074°10'0 0.0
2017-Sep-22 00:00N 40°38' W 074°10'0 0.0
2017-Sep-21 23:30N 40°38' W 074°10'0 0.0
2017-Sep-21 23:00N 40°38' W 074°10'0 0.0
2017-Sep-21 22:30N 40°38' W 074°10'0 0.0
2017-Sep-21 22:00N 40°38' W 074°10'0 0.0
2017-Sep-21 21:30N 40°38' W 074°10'0 0.0
2017-Sep-21 21:00N 40°38' W 074°10'0 0.0
2017-Sep-21 20:30N 40°38' W 074°10'1 1.1
2017-Sep-21 20:00N 40°39' W 074°10'6 6.1
2017-Sep-21 19:02N 40°33' W 074°14'0 6.1
2017-Sep-21 18:57N 40°33' W 074°13'3 6.1
2017-Sep-21 18:27N 40°36' W 074°12'1 3.1
2017-Sep-21 18:00N 40°38' W 074°12'0 0.0
2017-Sep-21 17:30N 40°38' W 074°12'1 2.3
2017-Sep-21 17:01N 40°39' W 074°11'1 2.1
2017-Sep-21 16:30N 40°38' W 074°10'2 4.0
2017-Sep-21 16:00N 40°38' W 074°12'0 0.3
2017-Sep-21 15:30N 40°38' W 074°12'1 1.9
2017-Sep-21 15:00N 40°38' W 074°11'0 0.0
2017-Sep-21 14:30N 40°38' W 074°11'0 0.3
2017-Sep-21 14:00N 40°39' W 074°11'2 3.1
2017-Sep-21 13:30N 40°39' W 074°09'3 6.1
2017-Sep-21 13:00N 40°39' W 074°05'0 0.7
2017-Sep-21 12:30N 40°39' W 074°05'0 0.4
2017-Sep-21 12:00N 40°39' W 074°05'0 0.4
2017-Sep-21 11:31N 40°39' W 074°05'3 6.6
2017-Sep-21 11:00N 40°40' W 074°01'1 1.1
2017-Sep-21 10:30N 40°40' W 074°00'1 2.2
2017-Sep-21 10:00N 40°41' W 074°01'2 4.4
2017-Sep-21 09:30N 40°42' W 073°60'1 1.6
2017-Sep-21 09:00N 40°42' W 073°58'0 0.0
2017-Sep-21 08:30N 40°42' W 073°58'3 6.5
2017-Sep-21 08:00N 40°41' W 074°02'1 1.5
2017-Sep-21 07:30N 40°40' W 074°03'0 0.0
2017-Sep-21 07:00N 40°40' W 074°03'1 1.1
2017-Sep-21 06:30N 40°40' W 074°03'2 4.9
2017-Sep-21 06:00N 40°39' W 074°06'0 0.3
2017-Sep-21 05:30N 40°39' W 074°06'0 0.6
2017-Sep-21 05:00N 40°39' W 074°06'3 5.5
2017-Sep-21 04:30N 40°38' W 074°10'0 0.0
2017-Sep-21 04:00N 40°38' W 074°10'0 0.0
2017-Sep-21 03:29N 40°38' W 074°10'0 0.0
2017-Sep-21 03:00N 40°38' W 074°10'0 0.0
2017-Sep-21 02:30N 40°38' W 074°10'0 0.0
2017-Sep-21 02:00N 40°38' W 074°10'0 0.7
2017-Sep-21 01:29N 40°38' W 074°09'2 3.7
2017-Sep-21 01:00N 40°40' W 074°08'0 0.1
2017-Sep-21 00:30N 40°40' W 074°08'0 0.6
2017-Sep-21 00:01N 40°40' W 074°08'2 4.6
2017-Sep-20 23:30N 40°38' W 074°10'0 0.1
2017-Sep-20 23:00N 40°38' W 074°10'0 0.0
2017-Sep-20 22:30N 40°38' W 074°10'0 0.0
2017-Sep-20 22:00N 40°38' W 074°10'0 0.0
2017-Sep-20 21:30N 40°38' W 074°10'0 0.0
2017-Sep-20 21:00N 40°38' W 074°10'1 1.9
2017-Sep-20 20:30N 40°39' W 074°09'2 4.8
2017-Sep-20 20:00N 40°39' W 074°05'0 0.0
2017-Sep-20 19:30N 40°39' W 074°05'2 3.1
2017-Sep-20 19:00N 40°39' W 074°07'2 3.6
2017-Sep-20 18:30N 40°38' W 074°10'0 0.0
2017-Sep-20 18:00N 40°38' W 074°10'0 0.0
2017-Sep-20 17:30N 40°38' W 074°10'0 0.0
2017-Sep-20 16:59N 40°38' W 074°10'0 0.0
2017-Sep-20 16:30N 40°38' W 074°10'0 0.0
2017-Sep-20 16:00N 40°38' W 074°10'0 0.3
2017-Sep-20 15:17N 40°39' W 074°10'0 1.4
2017-Sep-20 15:00N 40°39' W 074°10'2 1.6
2017-Sep-20 13:59N 40°38' W 074°12'0 0.0
2017-Sep-20 13:29N 40°38' W 074°12'0 0.1
2017-Sep-20 13:00N 40°38' W 074°12'1 2.9
2017-Sep-20 12:30N 40°39' W 074°11'3 6.5
2017-Sep-20 12:00N 40°39' W 074°06'3 5.1
2017-Sep-20 11:31N 40°38' W 074°03'2 3.1
2017-Sep-20 11:00N 40°39' W 074°05'4 7.5
2017-Sep-20 10:30N 40°38' W 074°10'1 2.5
2017-Sep-20 10:00N 40°38' W 074°11'0 0.0
2017-Sep-20 09:30N 40°38' W 074°11'0 0.0
2017-Sep-20 09:00N 40°38' W 074°11'0 0.0
2017-Sep-20 08:30N 40°38' W 074°11'0 0.0
2017-Sep-20 08:00N 40°38' W 074°11'0 0.0
2017-Sep-20 07:30N 40°38' W 074°11'0 0.0
2017-Sep-20 07:00N 40°38' W 074°11'0 0.0
2017-Sep-20 06:30N 40°38' W 074°11'0 0.0
2017-Sep-20 06:00N 40°38' W 074°11'0 0.1
2017-Sep-20 05:30N 40°38' W 074°12'1 1.5
2017-Sep-20 05:00N 40°38' W 074°12'0 0.0
2017-Sep-20 04:29N 40°38' W 074°12'3 4.9
2017-Sep-20 03:57N 40°39' W 074°09'2 5.3
2017-Sep-20 03:30N 40°41' W 074°08'1 1.6
2017-Sep-20 03:00N 40°42' W 074°09'0 0.0
2017-Sep-20 02:30N 40°42' W 074°09'2 4.2
2017-Sep-20 02:01N 40°40' W 074°09'0 0.4
2017-Sep-20 01:30N 40°40' W 074°09'0 0.1
2017-Sep-20 01:00N 40°40' W 074°09'1 1.9
2017-Sep-20 00:30N 40°40' W 074°08'0 0.0
2017-Sep-20 00:00N 40°40' W 074°08'0 0.0
2017-Sep-19 23:30N 40°40' W 074°08'0 0.1
2017-Sep-19 23:00N 40°40' W 074°08'1 2.7
2017-Sep-19 22:30N 40°42' W 074°09'0 0.1
2017-Sep-19 22:00N 40°42' W 074°09'2 3.6
2017-Sep-19 21:30N 40°40' W 074°08'1 2.1
2017-Sep-19 21:00N 40°39' W 074°09'1 1.5
2017-Sep-19 20:30N 40°40' W 074°09'0 0.1
2017-Sep-19 20:00N 40°40' W 074°09'1 1.3
2017-Sep-19 19:30N 40°40' W 074°08'0 0.0
2017-Sep-19 19:00N 40°40' W 074°08'2 3.3
2017-Sep-19 18:30N 40°39' W 074°09'1 1.5
2017-Sep-19 18:00N 40°38' W 074°10'0 0.0
2017-Sep-19 17:30N 40°38' W 074°10'0 0.0
2017-Sep-19 17:00N 40°38' W 074°10'0 0.0
2017-Sep-19 16:30N 40°38' W 074°10'0 0.0
2017-Sep-19 16:00N 40°38' W 074°10'3 5.0
2017-Sep-19 15:29N 40°37' W 074°12'1 0.5
2017-Sep-19 14:00N 40°36' W 074°12'4 1.7
2017-Sep-19 11:40N 40°33' W 074°15'2 8.4
2017-Sep-19 11:26N 40°34' W 074°13'4 8.9
2017-Sep-19 11:00N 40°38' W 074°12'2 4.0
2017-Sep-19 10:30N 40°38' W 074°10'0 0.0
2017-Sep-19 10:00N 40°38' W 074°10'0 0.0
2017-Sep-19 09:30N 40°38' W 074°10'0 0.0
2017-Sep-19 09:00N 40°38' W 074°10'0 0.0
2017-Sep-19 08:30N 40°38' W 074°10'3 6.1
2017-Sep-19 08:00N 40°39' W 074°06'510.5
2017-Sep-19 07:30N 40°42' W 074°00'1 2.9
2017-Sep-19 07:00N 40°42' W 073°58'0 0.0
2017-Sep-19 06:30N 40°42' W 073°58'0 0.0
2017-Sep-19 06:00N 40°42' W 073°58'0 0.0
2017-Sep-19 05:30N 40°42' W 073°58'0 0.0
2017-Sep-19 05:00N 40°42' W 073°58'0 0.0
2017-Sep-19 04:30N 40°42' W 073°58'0 0.0
2017-Sep-19 04:00N 40°42' W 073°58'0 0.0
2017-Sep-19 03:30N 40°42' W 073°58'0 0.0
2017-Sep-19 03:00N 40°42' W 073°58'0 0.0
2017-Sep-19 02:30N 40°42' W 073°58'0 0.0
2017-Sep-19 02:00N 40°42' W 073°58'0 0.2
2017-Sep-19 01:30N 40°43' W 073°59'1 2.9
2017-Sep-19 01:00N 40°42' W 074°00'3 5.5
2017-Sep-19 00:30N 40°40' W 074°03'3 5.7
2017-Sep-19 00:00N 40°39' W 074°06'3 5.3
2017-Sep-18 23:30N 40°38' W 074°10'0 0.0
2017-Sep-18 23:00N 40°38' W 074°10'0 0.0
2017-Sep-18 22:30N 40°38' W 074°10'0 0.0
2017-Sep-18 22:00N 40°38' W 074°10'0 0.0
2017-Sep-18 21:30N 40°38' W 074°10'0 0.0
2017-Sep-18 21:00N 40°38' W 074°10'3 6.8
2017-Sep-18 20:30N 40°39' W 074°05'1 2.7
2017-Sep-18 20:00N 40°40' W 074°05'0 0.3
2017-Sep-18 19:31N 40°40' W 074°05'2 4.4
2017-Sep-18 19:00N 40°38' W 074°03'1 2.9
2017-Sep-18 18:30N 40°37' W 074°03'4 8.5
2017-Sep-18 18:00N 40°39' W 074°08'1 2.5
2017-Sep-18 17:30N 40°38' W 074°10'0 0.7
2017-Sep-18 17:00N 40°38' W 074°09'3 6.7
2017-Sep-18 16:30N 40°42' W 074°09'0 0.2
2017-Sep-18 16:00N 40°42' W 074°09'2 3.8
2017-Sep-18 15:30N 40°40' W 074°08'2 4.2
2017-Sep-18 15:00N 40°39' W 074°06'3 5.6
2017-Sep-18 14:30N 40°37' W 074°03'3 5.6
2017-Sep-18 13:59N 40°39' W 074°06'3 5.9
2017-Sep-18 13:30N 40°38' W 074°10'0 0.0
2017-Sep-18 13:00N 40°38' W 074°10'0 0.0
2017-Sep-18 12:30N 40°38' W 074°10'0 0.0
2017-Sep-18 11:59N 40°38' W 074°10'0 0.0
2017-Sep-18 11:30N 40°38' W 074°10'0 0.0
2017-Sep-18 11:00N 40°38' W 074°10'1 2.5
2017-Sep-18 10:30N 40°39' W 074°09'0 0.4
2017-Sep-18 10:00N 40°40' W 074°09'1 2.3
2017-Sep-18 09:30N 40°39' W 074°08'3 6.8
2017-Sep-18 09:00N 40°39' W 074°04'1 2.7
2017-Sep-18 08:30N 40°38' W 074°03'4 7.2
2017-Sep-18 08:00N 40°39' W 074°08'1 2.8
2017-Sep-18 07:29N 40°38' W 074°10'2 4.7
2017-Sep-18 07:01N 40°40' W 074°08'0 0.2
2017-Sep-18 06:30N 40°40' W 074°08'0 0.0
2017-Sep-18 06:00N 40°40' W 074°08'0 0.0
2017-Sep-18 05:30N 40°40' W 074°08'0 0.0
2017-Sep-18 05:00N 40°40' W 074°08'0 0.0
2017-Sep-18 04:30N 40°40' W 074°08'0 0.0
2017-Sep-18 04:00N 40°40' W 074°08'0 0.0
2017-Sep-18 03:30N 40°40' W 074°08'0 0.0
2017-Sep-18 03:00N 40°40' W 074°08'0 0.0
2017-Sep-18 02:30N 40°40' W 074°08'0 0.0
2017-Sep-18 02:00N 40°40' W 074°08'0 0.0
2017-Sep-18 01:30N 40°40' W 074°08'0 0.0
2017-Sep-18 01:00N 40°40' W 074°08'0 0.0
2017-Sep-18 00:30N 40°40' W 074°08'1 3.0
2017-Sep-18 00:00N 40°39' W 074°09'3 5.2
2017-Sep-17 23:30N 40°38' W 074°12'0 0.0
2017-Sep-17 23:00N 40°38' W 074°12'1 2.0
2017-Sep-17 22:30N 40°39' W 074°11'3 7.0
2017-Sep-17 22:00N 40°39' W 074°07'3 5.5
2017-Sep-17 21:30N 40°38' W 074°03'0 0.5
2017-Sep-17 21:00N 40°38' W 074°03'2 4.2
2017-Sep-17 20:30N 40°40' W 074°04'0 0.0
2017-Sep-17 20:00N 40°40' W 074°04'0 0.0
2017-Sep-17 19:30N 40°40' W 074°04'0 0.0
2017-Sep-17 19:00N 40°40' W 074°04'0 0.0
2017-Sep-17 18:30N 40°40' W 074°04'0 0.0
2017-Sep-17 18:00N 40°40' W 074°04'0 0.0
2017-Sep-17 17:30N 40°40' W 074°04'0 0.0
2017-Sep-17 17:00N 40°40' W 074°04'0 0.0
2017-Sep-17 16:30N 40°40' W 074°04'0 0.0
2017-Sep-17 16:00N 40°40' W 074°04'0 0.0
2017-Sep-17 15:30N 40°40' W 074°04'0 0.0
2017-Sep-17 15:00N 40°40' W 074°04'0 0.0
2017-Sep-17 14:30N 40°40' W 074°04'2 4.2
2017-Sep-17 14:00N 40°39' W 074°07'0 0.4
2017-Sep-17 13:30N 40°39' W 074°07'0 0.0
2017-Sep-17 12:56N 40°39' W 074°07'0 0.0
2017-Sep-17 12:29N 40°39' W 074°07'2 3.7
2017-Sep-17 12:00N 40°40' W 074°08'0 0.2
2017-Sep-17 11:30N 40°40' W 074°08'0 0.0
2017-Sep-17 11:00N 40°40' W 074°08'0 0.0
2017-Sep-17 10:30N 40°40' W 074°08'4 7.7
2017-Sep-17 09:59N 40°38' W 074°12'2 3.2
2017-Sep-17 09:16N 40°35' W 074°12'0 0.0
2017-Sep-17 09:00N 40°35' W 074°12'0 0.8
2017-Sep-17 08:30N 40°35' W 074°12'3 2.1
2017-Sep-17 07:01N 40°32' W 074°15'0 9.3
2017-Sep-17 06:59N 40°33' W 074°15'3 6.3
2017-Sep-17 06:29N 40°35' W 074°12'0 0.0
2017-Sep-17 05:42N 40°35' W 074°13'1 6.3
2017-Sep-17 05:30N 40°36' W 074°12'4 7.3
2017-Sep-17 05:00N 40°39' W 074°09'1 2.8
2017-Sep-17 04:30N 40°40' W 074°08'0 0.0
2017-Sep-17 04:00N 40°40' W 074°08'0 0.0
2017-Sep-17 03:30N 40°40' W 074°08'0 0.0
2017-Sep-17 03:00N 40°40' W 074°08'0 0.0
2017-Sep-17 02:29N 40°40' W 074°08'0 0.0
2017-Sep-17 02:00N 40°40' W 074°08'0 0.0
2017-Sep-17 01:30N 40°40' W 074°08'0 0.0
2017-Sep-17 01:00N 40°40' W 074°08'0 0.0
2017-Sep-17 00:30N 40°40' W 074°08'0 0.0
2017-Sep-17 00:00N 40°40' W 074°08'0 0.0
2017-Sep-16 23:30N 40°40' W 074°08'0 0.0
2017-Sep-16 23:00N 40°40' W 074°08'0 0.0
2017-Sep-16 22:30N 40°40' W 074°08'0 0.0
2017-Sep-16 22:00N 40°40' W 074°08'0 0.0
2017-Sep-16 21:30N 40°40' W 074°08'0 0.0
2017-Sep-16 21:00N 40°40' W 074°08'0 0.0
2017-Sep-16 20:30N 40°40' W 074°08'0 0.0
2017-Sep-16 20:00N 40°40' W 074°08'2 3.8
2017-Sep-16 19:30N 40°39' W 074°09'1 1.3
2017-Sep-16 19:00N 40°38' W 074°10'0 0.0
2017-Sep-16 18:30N 40°38' W 074°10'0 0.0
2017-Sep-16 18:00N 40°38' W 074°10'0 0.0
2017-Sep-16 17:30N 40°38' W 074°10'0 0.0
2017-Sep-16 17:00N 40°38' W 074°10'0 0.9
2017-Sep-16 16:30N 40°38' W 074°09'2 4.2
2017-Sep-16 16:00N 40°40' W 074°08'0 0.0
2017-Sep-16 15:30N 40°40' W 074°08'0 0.0
2017-Sep-16 15:00N 40°40' W 074°08'0 0.0
2017-Sep-16 14:30N 40°40' W 074°08'0 0.0
2017-Sep-16 14:00N 40°40' W 074°08'0 0.0
2017-Sep-16 13:30N 40°40' W 074°08'0 0.0
2017-Sep-16 13:00N 40°40' W 074°08'0 0.0
2017-Sep-16 12:30N 40°40' W 074°08'0 0.0
2017-Sep-16 12:00N 40°40' W 074°08'0 0.0
2017-Sep-16 11:30N 40°40' W 074°08'1 1.8
2017-Sep-16 11:00N 40°40' W 074°09'3 6.1
2017-Sep-16 10:30N 40°38' W 074°12'0 0.0
2017-Sep-16 10:00N 40°38' W 074°12'0 0.3
2017-Sep-16 09:30N 40°38' W 074°12'2 3.8
2017-Sep-16 09:00N 40°39' W 074°10'3 6.1
2017-Sep-16 08:30N 40°39' W 074°06'2 4.6
2017-Sep-16 08:00N 40°37' W 074°03'2 4.9
2017-Sep-16 07:30N 40°39' W 074°06'2 3.2
2017-Sep-16 07:00N 40°39' W 074°08'1 2.1
2017-Sep-16 06:31N 40°39' W 074°09'1 2.5
2017-Sep-16 05:56N 40°39' W 074°11'1 2.5
2017-Sep-16 05:30N 40°38' W 074°10'0 0.2
2017-Sep-16 05:00N 40°38' W 074°10'4 8.3
2017-Sep-16 04:30N 40°39' W 074°04'1 1.2
2017-Sep-16 04:00N 40°40' W 074°04'0 0.0
2017-Sep-16 03:30N 40°40' W 074°04'0 0.0
2017-Sep-16 03:00N 40°40' W 074°04'0 0.0
2017-Sep-16 02:30N 40°40' W 074°04'0 0.0
2017-Sep-16 02:00N 40°40' W 074°04'0 0.0
2017-Sep-16 01:30N 40°40' W 074°04'0 0.0
2017-Sep-16 01:00N 40°40' W 074°04'0 0.0
2017-Sep-16 00:30N 40°40' W 074°04'0 0.0
2017-Sep-16 00:00N 40°40' W 074°04'0 0.0
2017-Sep-15 23:30N 40°40' W 074°04'0 0.0
2017-Sep-15 23:00N 40°40' W 074°04'0 0.0
2017-Sep-15 22:30N 40°40' W 074°04'2 4.2
2017-Sep-15 22:00N 40°38' W 074°04'3 5.7
2017-Sep-15 21:30N 40°39' W 074°07'2 4.0
2017-Sep-15 21:00N 40°40' W 074°08'0 0.0
2017-Sep-15 20:30N 40°40' W 074°08'0 0.0
2017-Sep-15 20:00N 40°40' W 074°08'1 1.7
2017-Sep-15 19:30N 40°40' W 074°09'0 0.6
2017-Sep-15 19:00N 40°40' W 074°09'0 0.1
2017-Sep-15 18:30N 40°40' W 074°09'1 1.4
2017-Sep-15 18:00N 40°40' W 074°08'0 0.0
2017-Sep-15 17:30N 40°40' W 074°08'0 0.0
2017-Sep-15 17:00N 40°40' W 074°08'0 0.0
2017-Sep-15 16:30N 40°40' W 074°08'0 0.0
2017-Sep-15 16:00N 40°40' W 074°08'0 0.0
2017-Sep-15 15:30N 40°40' W 074°08'0 0.0
2017-Sep-15 15:00N 40°40' W 074°08'0 0.0
2017-Sep-15 14:30N 40°40' W 074°08'0 0.0
2017-Sep-15 14:00N 40°40' W 074°08'0 0.0
2017-Sep-15 13:30N 40°40' W 074°08'1 2.7
2017-Sep-15 13:00N 40°39' W 074°09'3 6.5
2017-Sep-15 12:30N 40°37' W 074°12'5 6.3
2017-Sep-15 11:43N 40°33' W 074°15'0 0.6
2017-Sep-15 11:20N 40°32' W 074°15'2 6.9
2017-Sep-15 11:00N 40°34' W 074°13'5 9.3
2017-Sep-15 10:29N 40°39' W 074°11'0 0.3
2017-Sep-15 09:59N 40°39' W 074°11'3 5.6
2017-Sep-15 09:30N 40°39' W 074°08'3 6.7
2017-Sep-15 09:00N 40°38' W 074°03'4 7.4
2017-Sep-15 08:30N 40°39' W 074°08'1 2.7
2017-Sep-15 08:00N 40°38' W 074°10'0 0.0
2017-Sep-15 07:30N 40°38' W 074°10'0 0.0
2017-Sep-15 07:00N 40°38' W 074°10'0 0.0
2017-Sep-15 06:30N 40°38' W 074°10'0 0.0
2017-Sep-15 06:00N 40°38' W 074°10'0 0.0
2017-Sep-15 05:30N 40°38' W 074°10'0 0.0
2017-Sep-15 05:00N 40°38' W 074°10'0 0.0
2017-Sep-15 04:30N 40°38' W 074°10'0 0.0
2017-Sep-15 04:00N 40°38' W 074°10'0 0.0
2017-Sep-15 03:30N 40°38' W 074°10'0 0.0
2017-Sep-15 03:00N 40°38' W 074°10'0 0.0
2017-Sep-15 02:30N 40°38' W 074°10'0 0.0
2017-Sep-15 02:00N 40°38' W 074°10'0 0.0
2017-Sep-15 01:30N 40°38' W 074°10'0 0.0
2017-Sep-15 01:00N 40°38' W 074°10'0 0.0
2017-Sep-15 00:30N 40°38' W 074°10'0 0.0
2017-Sep-15 00:00N 40°38' W 074°10'0 0.0
2017-Sep-14 23:30N 40°38' W 074°10'0 0.0
2017-Sep-14 23:00N 40°38' W 074°10'0 0.0
2017-Sep-14 22:30N 40°38' W 074°10'0 0.0
2017-Sep-14 22:00N 40°38' W 074°10'0 0.0
2017-Sep-14 21:30N 40°38' W 074°10'0 0.0
2017-Sep-14 21:00N 40°38' W 074°10'0 0.0
2017-Sep-14 20:30N 40°38' W 074°10'0 0.0
2017-Sep-14 20:00N 40°38' W 074°10'0 0.0
2017-Sep-14 19:30N 40°38' W 074°10'0 0.0
2017-Sep-14 19:00N 40°38' W 074°10'0 0.1
2017-Sep-14 18:30N 40°39' W 074°10'2 3.1
2017-Sep-14 18:00N 40°38' W 074°12'3 4.9
2017-Sep-14 17:24N 40°35' W 074°12'0 0.1
2017-Sep-14 17:00N 40°35' W 074°13'0 0.4
2017-Sep-14 16:30N 40°35' W 074°12'0 0.0
2017-Sep-14 16:00N 40°35' W 074°12'0 0.0
2017-Sep-14 15:30N 40°35' W 074°12'0 0.0
2017-Sep-14 15:00N 40°35' W 074°12'3 4.8
2017-Sep-14 14:16N 40°33' W 074°15'1 1.0
2017-Sep-14 13:16N 40°32' W 074°15'0 0.4
2017-Sep-14 12:46N 40°31' W 074°15'0 0.3
2017-Sep-14 12:24N 40°31' W 074°15'1 3.0
2017-Sep-14 12:00N 40°33' W 074°15'5 9.5
2017-Sep-14 11:30N 40°37' W 074°12'2 3.7
2017-Sep-14 10:58N 40°39' W 074°11'2 4.6
2017-Sep-14 10:30N 40°39' W 074°08'  
Track history (hours):
 
Tides and Currents Weather Stations Pressure Air Temp Water Temp Dewpoint Dewpoint Depression Visibility Wind Speed Wind Dir Waves Ship Positions

Bruce Mcallister

Owner: McAllister Towing & Transportation Company Inc., Staten Island, NY. More information available from US FCC via Universal Licensing System and Coast Guard Vessel Documentation Center.

Last reported at 2017-Sep-24 10:00 UTC. Time now 2017-Sep-24 10:12 UTC.
Position N 40°38' W 074°10'.

Length 33 m; draft 4.9 m.

Type: Tug. MMSI: 367165430.

Date/timePositionNaut miles runAvg speedWind from/ knotsBaromVisibWave heightAir tempDewpointWater temp
2017-Sep-24 10:00N 40°38' W 074°10'0 0.0
2017-Sep-24 09:30N 40°38' W 074°10'0 0.0
2017-Sep-24 09:00N 40°38' W 074°10'0 0.0
2017-Sep-24 08:30N 40°38' W 074°10'0 0.0
2017-Sep-24 08:00N 40°38' W 074°10'0 0.0
2017-Sep-24 07:30N 40°38' W 074°10'0 0.0
2017-Sep-24 07:00N 40°38' W 074°10'0 0.0
2017-Sep-24 06:30N 40°38' W 074°10'0 0.0
2017-Sep-24 06:00N 40°38' W 074°10'0 0.0
2017-Sep-24 05:30N 40°38' W 074°10'0 0.0
2017-Sep-24 04:59N 40°38' W 074°10'0 0.0
2017-Sep-24 04:30N 40°38' W 074°10'0 0.0
2017-Sep-24 04:00N 40°38' W 074°10'0 0.0
2017-Sep-24 03:30N 40°38' W 074°10'0 0.0
2017-Sep-24 03:00N 40°38' W 074°10'0 0.0
2017-Sep-24 02:30N 40°38' W 074°10'0 0.0
2017-Sep-24 02:00N 40°38' W 074°10'0 0.0
2017-Sep-24 01:30N 40°38' W 074°10'0 0.0
2017-Sep-24 01:00N 40°38' W 074°10'0 0.0
2017-Sep-24 00:30N 40°38' W 074°10'0 0.0
2017-Sep-24 00:00N 40°38' W 074°10'0 0.0
2017-Sep-23 23:30N 40°38' W 074°10'0 0.0
2017-Sep-23 23:00N 40°38' W 074°10'0 0.0
2017-Sep-23 22:30N 40°38' W 074°10'0 0.0
2017-Sep-23 22:00N 40°38' W 074°10'0 0.0
2017-Sep-23 21:30N 40°38' W 074°10'0 0.0
2017-Sep-23 21:00N 40°38' W 074°10'0 0.0
2017-Sep-23 20:30N 40°38' W 074°10'0 0.0
2017-Sep-23 20:00N 40°38' W 074°10'6 0.1
2017-Sep-22 02:00N 40°39' W 074°02'5 9.6
2017-Sep-22 01:30N 40°39' W 074°08'1 2.3
2017-Sep-22 01:00N 40°38' W 074°10'0 0.0
2017-Sep-22 00:30N 40°38' W 074°10'0 0.0
2017-Sep-22 00:00N 40°38' W 074°10'0 0.0
2017-Sep-21 23:30N 40°38' W 074°10'0 0.0
2017-Sep-21 23:00N 40°38' W 074°10'0 0.0
2017-Sep-21 22:30N 40°38' W 074°10'0 0.0
2017-Sep-21 22:00N 40°38' W 074°10'0 0.0
2017-Sep-21 21:30N 40°38' W 074°10'0 0.0
2017-Sep-21 21:00N 40°38' W 074°10'0 0.0
2017-Sep-21 20:30N 40°38' W 074°10'1 1.1
2017-Sep-21 20:00N 40°39' W 074°10'6 6.1
2017-Sep-21 19:02N 40°33' W 074°14'0 6.1
2017-Sep-21 18:57N 40°33' W 074°13'3 6.1
2017-Sep-21 18:27N 40°36' W 074°12'1 3.1
2017-Sep-21 18:00N 40°38' W 074°12'0 0.0
2017-Sep-21 17:30N 40°38' W 074°12'1 2.3
2017-Sep-21 17:01N 40°39' W 074°11'1 2.1
2017-Sep-21 16:30N 40°38' W 074°10'2 4.0
2017-Sep-21 16:00N 40°38' W 074°12'0 0.3
2017-Sep-21 15:30N 40°38' W 074°12'1 1.9
2017-Sep-21 15:00N 40°38' W 074°11'0 0.0
2017-Sep-21 14:30N 40°38' W 074°11'0 0.3
2017-Sep-21 14:00N 40°39' W 074°11'2 3.1
2017-Sep-21 13:30N 40°39' W 074°09'3 6.1
2017-Sep-21 13:00N 40°39' W 074°05'0 0.7
2017-Sep-21 12:30N 40°39' W 074°05'0 0.4
2017-Sep-21 12:00N 40°39' W 074°05'0 0.4
2017-Sep-21 11:31N 40°39' W 074°05'3 6.6
2017-Sep-21 11:00N 40°40' W 074°01'1 1.1
2017-Sep-21 10:30N 40°40' W 074°00'1 2.2
2017-Sep-21 10:00N 40°41' W 074°01'2 4.4
2017-Sep-21 09:30N 40°42' W 073°60'1 1.6
2017-Sep-21 09:00N 40°42' W 073°58'0 0.0
2017-Sep-21 08:30N 40°42' W 073°58'3 6.5
2017-Sep-21 08:00N 40°41' W 074°02'1 1.5
2017-Sep-21 07:30N 40°40' W 074°03'0 0.0
2017-Sep-21 07:00N 40°40' W 074°03'1 1.1
2017-Sep-21 06:30N 40°40' W 074°03'2 4.9
2017-Sep-21 06:00N 40°39' W 074°06'0 0.3
2017-Sep-21 05:30N 40°39' W 074°06'0 0.6
2017-Sep-21 05:00N 40°39' W 074°06'3 5.5
2017-Sep-21 04:30N 40°38' W 074°10'0 0.0
2017-Sep-21 04:00N 40°38' W 074°10'0 0.0
2017-Sep-21 03:29N 40°38' W 074°10'0 0.0
2017-Sep-21 03:00N 40°38' W 074°10'0 0.0
2017-Sep-21 02:30N 40°38' W 074°10'0 0.0
2017-Sep-21 02:00N 40°38' W 074°10'0 0.7
2017-Sep-21 01:29N 40°38' W 074°09'2 3.7
2017-Sep-21 01:00N 40°40' W 074°08'0 0.1
2017-Sep-21 00:30N 40°40' W 074°08'0 0.6
2017-Sep-21 00:01N 40°40' W 074°08'2 4.6
2017-Sep-20 23:30N 40°38' W 074°10'0 0.1
2017-Sep-20 23:00N 40°38' W 074°10'0 0.0
2017-Sep-20 22:30N 40°38' W 074°10'0 0.0
2017-Sep-20 22:00N 40°38' W 074°10'0 0.0
2017-Sep-20 21:30N 40°38' W 074°10'0 0.0
2017-Sep-20 21:00N 40°38' W 074°10'1 1.9
2017-Sep-20 20:30N 40°39' W 074°09'2 4.8
2017-Sep-20 20:00N 40°39' W 074°05'0 0.0
2017-Sep-20 19:30N 40°39' W 074°05'2 3.1
2017-Sep-20 19:00N 40°39' W 074°07'2 3.6
2017-Sep-20 18:30N 40°38' W 074°10'0 0.0
2017-Sep-20 18:00N 40°38' W 074°10'0 0.0
2017-Sep-20 17:30N 40°38' W 074°10'0 0.0
2017-Sep-20 16:59N 40°38' W 074°10'0 0.0
2017-Sep-20 16:30N 40°38' W 074°10'0 0.0
2017-Sep-20 16:00N 40°38' W 074°10'0 0.3
2017-Sep-20 15:17N 40°39' W 074°10'0 1.4
2017-Sep-20 15:00N 40°39' W 074°10'2 1.6
2017-Sep-20 13:59N 40°38' W 074°12'0 0.0
2017-Sep-20 13:29N 40°38' W 074°12'0 0.1
2017-Sep-20 13:00N 40°38' W 074°12'1 2.9
2017-Sep-20 12:30N 40°39' W 074°11'3 6.5
2017-Sep-20 12:00N 40°39' W 074°06'3 5.1
2017-Sep-20 11:31N 40°38' W 074°03'2 3.1
2017-Sep-20 11:00N 40°39' W 074°05'4 7.5
2017-Sep-20 10:30N 40°38' W 074°10'1 2.5
2017-Sep-20 10:00N 40°38' W 074°11'0 0.0
2017-Sep-20 09:30N 40°38' W 074°11'0 0.0
2017-Sep-20 09:00N 40°38' W 074°11'0 0.0
2017-Sep-20 08:30N 40°38' W 074°11'0 0.0
2017-Sep-20 08:00N 40°38' W 074°11'0 0.0
2017-Sep-20 07:30N 40°38' W 074°11'0 0.0
2017-Sep-20 07:00N 40°38' W 074°11'0 0.0
2017-Sep-20 06:30N 40°38' W 074°11'0 0.0
2017-Sep-20 06:00N 40°38' W 074°11'0 0.1
2017-Sep-20 05:30N 40°38' W 074°12'1 1.5
2017-Sep-20 05:00N 40°38' W 074°12'0 0.0
2017-Sep-20 04:29N 40°38' W 074°12'3 4.9
2017-Sep-20 03:57N 40°39' W 074°09'2 5.3
2017-Sep-20 03:30N 40°41' W 074°08'1 1.6
2017-Sep-20 03:00N 40°42' W 074°09'0 0.0
2017-Sep-20 02:30N 40°42' W 074°09'2 4.2
2017-Sep-20 02:01N 40°40' W 074°09'0 0.4
2017-Sep-20 01:30N 40°40' W 074°09'0 0.1
2017-Sep-20 01:00N 40°40' W 074°09'1 1.9
2017-Sep-20 00:30N 40°40' W 074°08'0 0.0
2017-Sep-20 00:00N 40°40' W 074°08'0 0.0
2017-Sep-19 23:30N 40°40' W 074°08'0 0.1
2017-Sep-19 23:00N 40°40' W 074°08'1 2.7
2017-Sep-19 22:30N 40°42' W 074°09'0 0.1
2017-Sep-19 22:00N 40°42' W 074°09'2 3.6
2017-Sep-19 21:30N 40°40' W 074°08'1 2.1
2017-Sep-19 21:00N 40°39' W 074°09'1 1.5
2017-Sep-19 20:30N 40°40' W 074°09'0 0.1
2017-Sep-19 20:00N 40°40' W 074°09'1 1.3
2017-Sep-19 19:30N 40°40' W 074°08'0 0.0
2017-Sep-19 19:00N 40°40' W 074°08'2 3.3
2017-Sep-19 18:30N 40°39' W 074°09'1 1.5
2017-Sep-19 18:00N 40°38' W 074°10'0 0.0
2017-Sep-19 17:30N 40°38' W 074°10'0 0.0
2017-Sep-19 17:00N 40°38' W 074°10'0 0.0
2017-Sep-19 16:30N 40°38' W 074°10'0 0.0
2017-Sep-19 16:00N 40°38' W 074°10'3 5.0
2017-Sep-19 15:29N 40°37' W 074°12'1 0.5
2017-Sep-19 14:00N 40°36' W 074°12'4 1.7
2017-Sep-19 11:40N 40°33' W 074°15'2 8.4
2017-Sep-19 11:26N 40°34' W 074°13'4 8.9
2017-Sep-19 11:00N 40°38' W 074°12'2 4.0
2017-Sep-19 10:30N 40°38' W 074°10'0 0.0
2017-Sep-19 10:00N 40°38' W 074°10'0 0.0
2017-Sep-19 09:30N 40°38' W 074°10'0 0.0
2017-Sep-19 09:00N 40°38' W 074°10'0 0.0
2017-Sep-19 08:30N 40°38' W 074°10'3 6.1
2017-Sep-19 08:00N 40°39' W 074°06'510.5
2017-Sep-19 07:30N 40°42' W 074°00'1 2.9
2017-Sep-19 07:00N 40°42' W 073°58'0 0.0
2017-Sep-19 06:30N 40°42' W 073°58'0 0.0
2017-Sep-19 06:00N 40°42' W 073°58'0 0.0
2017-Sep-19 05:30N 40°42' W 073°58'0 0.0
2017-Sep-19 05:00N 40°42' W 073°58'0 0.0
2017-Sep-19 04:30N 40°42' W 073°58'0 0.0
2017-Sep-19 04:00N 40°42' W 073°58'0 0.0
2017-Sep-19 03:30N 40°42' W 073°58'0 0.0
2017-Sep-19 03:00N 40°42' W 073°58'0 0.0
2017-Sep-19 02:30N 40°42' W 073°58'0 0.0
2017-Sep-19 02:00N 40°42' W 073°58'0 0.2
2017-Sep-19 01:30N 40°43' W 073°59'1 2.9
2017-Sep-19 01:00N 40°42' W 074°00'3 5.5
2017-Sep-19 00:30N 40°40' W 074°03'3 5.7
2017-Sep-19 00:00N 40°39' W 074°06'3 5.3
2017-Sep-18 23:30N 40°38' W 074°10'0 0.0
2017-Sep-18 23:00N 40°38' W 074°10'0 0.0
2017-Sep-18 22:30N 40°38' W 074°10'0 0.0
2017-Sep-18 22:00N 40°38' W 074°10'0 0.0
2017-Sep-18 21:30N 40°38' W 074°10'0 0.0
2017-Sep-18 21:00N 40°38' W 074°10'3 6.8
2017-Sep-18 20:30N 40°39' W 074°05'1 2.7
2017-Sep-18 20:00N 40°40' W 074°05'0 0.3
2017-Sep-18 19:31N 40°40' W 074°05'2 4.4
2017-Sep-18 19:00N 40°38' W 074°03'1 2.9
2017-Sep-18 18:30N 40°37' W 074°03'4 8.5
2017-Sep-18 18:00N 40°39' W 074°08'1 2.5
2017-Sep-18 17:30N 40°38' W 074°10'0 0.7
2017-Sep-18 17:00N 40°38' W 074°09'3 6.7
2017-Sep-18 16:30N 40°42' W 074°09'0 0.2
2017-Sep-18 16:00N 40°42' W 074°09'2 3.8
2017-Sep-18 15:30N 40°40' W 074°08'2 4.2
2017-Sep-18 15:00N 40°39' W 074°06'3 5.6
2017-Sep-18 14:30N 40°37' W 074°03'3 5.6
2017-Sep-18 13:59N 40°39' W 074°06'3 5.9
2017-Sep-18 13:30N 40°38' W 074°10'0 0.0
2017-Sep-18 13:00N 40°38' W 074°10'0 0.0
2017-Sep-18 12:30N 40°38' W 074°10'0 0.0
2017-Sep-18 11:59N 40°38' W 074°10'0 0.0
2017-Sep-18 11:30N 40°38' W 074°10'0 0.0
2017-Sep-18 11:00N 40°38' W 074°10'1 2.5
2017-Sep-18 10:30N 40°39' W 074°09'0 0.4
2017-Sep-18 10:00N 40°40' W 074°09'1 2.3
2017-Sep-18 09:30N 40°39' W 074°08'3 6.8
2017-Sep-18 09:00N 40°39' W 074°04'1 2.7
2017-Sep-18 08:30N 40°38' W 074°03'4 7.2
2017-Sep-18 08:00N 40°39' W 074°08'1 2.8
2017-Sep-18 07:29N 40°38' W 074°10'2 4.7
2017-Sep-18 07:01N 40°40' W 074°08'0 0.2
2017-Sep-18 06:30N 40°40' W 074°08'0 0.0
2017-Sep-18 06:00N 40°40' W 074°08'0 0.0
2017-Sep-18 05:30N 40°40' W 074°08'0 0.0
2017-Sep-18 05:00N 40°40' W 074°08'0 0.0
2017-Sep-18 04:30N 40°40' W 074°08'0 0.0
2017-Sep-18 04:00N 40°40' W 074°08'0 0.0
2017-Sep-18 03:30N 40°40' W 074°08'0 0.0
2017-Sep-18 03:00N 40°40' W 074°08'0 0.0
2017-Sep-18 02:30N 40°40' W 074°08'0 0.0
2017-Sep-18 02:00N 40°40' W 074°08'0 0.0
2017-Sep-18 01:30N 40°40' W 074°08'0 0.0
2017-Sep-18 01:00N 40°40' W 074°08'0 0.0
2017-Sep-18 00:30N 40°40' W 074°08'1 3.0
2017-Sep-18 00:00N 40°39' W 074°09'3 5.2
2017-Sep-17 23:30N 40°38' W 074°12'0 0.0
2017-Sep-17 23:00N 40°38' W 074°12'1 2.0
2017-Sep-17 22:30N 40°39' W 074°11'3 7.0
2017-Sep-17 22:00N 40°39' W 074°07'3 5.5
2017-Sep-17 21:30N 40°38' W 074°03'0 0.5
2017-Sep-17 21:00N 40°38' W 074°03'2 4.2
2017-Sep-17 20:30N 40°40' W 074°04'0 0.0
2017-Sep-17 20:00N 40°40' W 074°04'0 0.0
2017-Sep-17 19:30N 40°40' W 074°04'0 0.0
2017-Sep-17 19:00N 40°40' W 074°04'0 0.0
2017-Sep-17 18:30N 40°40' W 074°04'0 0.0
2017-Sep-17 18:00N 40°40' W 074°04'0 0.0
2017-Sep-17 17:30N 40°40' W 074°04'0 0.0
2017-Sep-17 17:00N 40°40' W 074°04'0 0.0
2017-Sep-17 16:30N 40°40' W 074°04'0 0.0
2017-Sep-17 16:00N 40°40' W 074°04'0 0.0
2017-Sep-17 15:30N 40°40' W 074°04'0 0.0
2017-Sep-17 15:00N 40°40' W 074°04'0 0.0
2017-Sep-17 14:30N 40°40' W 074°04'2 4.2
2017-Sep-17 14:00N 40°39' W 074°07'0 0.4
2017-Sep-17 13:30N 40°39' W 074°07'0 0.0
2017-Sep-17 12:56N 40°39' W 074°07'0 0.0
2017-Sep-17 12:29N 40°39' W 074°07'2 3.7
2017-Sep-17 12:00N 40°40' W 074°08'0 0.2
2017-Sep-17 11:30N 40°40' W 074°08'0 0.0
2017-Sep-17 11:00N 40°40' W 074°08'0 0.0
2017-Sep-17 10:30N 40°40' W 074°08'4 7.7
2017-Sep-17 09:59N 40°38' W 074°12'2 3.2
2017-Sep-17 09:16N 40°35' W 074°12'0 0.0
2017-Sep-17 09:00N 40°35' W 074°12'0 0.8
2017-Sep-17 08:30N 40°35' W 074°12'3 2.1
2017-Sep-17 07:01N 40°32' W 074°15'0 9.3
2017-Sep-17 06:59N 40°33' W 074°15'3 6.3
2017-Sep-17 06:29N 40°35' W 074°12'0 0.0
2017-Sep-17 05:42N 40°35' W 074°13'1 6.3
2017-Sep-17 05:30N 40°36' W 074°12'4 7.3
2017-Sep-17 05:00N 40°39' W 074°09'1 2.8
2017-Sep-17 04:30N 40°40' W 074°08'0 0.0
2017-Sep-17 04:00N 40°40' W 074°08'0 0.0
2017-Sep-17 03:30N 40°40' W 074°08'0 0.0
2017-Sep-17 03:00N 40°40' W 074°08'0 0.0
2017-Sep-17 02:29N 40°40' W 074°08'0 0.0
2017-Sep-17 02:00N 40°40' W 074°08'0 0.0
2017-Sep-17 01:30N 40°40' W 074°08'0 0.0
2017-Sep-17 01:00N 40°40' W 074°08'0 0.0
2017-Sep-17 00:30N 40°40' W 074°08'0 0.0
2017-Sep-17 00:00N 40°40' W 074°08'0 0.0
2017-Sep-16 23:30N 40°40' W 074°08'0 0.0
2017-Sep-16 23:00N 40°40' W 074°08'0 0.0
2017-Sep-16 22:30N 40°40' W 074°08'0 0.0
2017-Sep-16 22:00N 40°40' W 074°08'0 0.0
2017-Sep-16 21:30N 40°40' W 074°08'0 0.0
2017-Sep-16 21:00N 40°40' W 074°08'0 0.0
2017-Sep-16 20:30N 40°40' W 074°08'0 0.0
2017-Sep-16 20:00N 40°40' W 074°08'2 3.8
2017-Sep-16 19:30N 40°39' W 074°09'1 1.3
2017-Sep-16 19:00N 40°38' W 074°10'0 0.0
2017-Sep-16 18:30N 40°38' W 074°10'0 0.0
2017-Sep-16 18:00N 40°38' W 074°10'0 0.0
2017-Sep-16 17:30N 40°38' W 074°10'0 0.0
2017-Sep-16 17:00N 40°38' W 074°10'0 0.9
2017-Sep-16 16:30N 40°38' W 074°09'2 4.2
2017-Sep-16 16:00N 40°40' W 074°08'0 0.0
2017-Sep-16 15:30N 40°40' W 074°08'0 0.0
2017-Sep-16 15:00N 40°40' W 074°08'0 0.0
2017-Sep-16 14:30N 40°40' W 074°08'0 0.0
2017-Sep-16 14:00N 40°40' W 074°08'0 0.0
2017-Sep-16 13:30N 40°40' W 074°08'0 0.0
2017-Sep-16 13:00N 40°40' W 074°08'0 0.0
2017-Sep-16 12:30N 40°40' W 074°08'0 0.0
2017-Sep-16 12:00N 40°40' W 074°08'0 0.0
2017-Sep-16 11:30N 40°40' W 074°08'1 1.8
2017-Sep-16 11:00N 40°40' W 074°09'3 6.1
2017-Sep-16 10:30N 40°38' W 074°12'0 0.0
2017-Sep-16 10:00N 40°38' W 074°12'0 0.3
2017-Sep-16 09:30N 40°38' W 074°12'2 3.8
2017-Sep-16 09:00N 40°39' W 074°10'3 6.1
2017-Sep-16 08:30N 40°39' W 074°06'2 4.6
2017-Sep-16 08:00N 40°37' W 074°03'2 4.9
2017-Sep-16 07:30N 40°39' W 074°06'2 3.2
2017-Sep-16 07:00N 40°39' W 074°08'1 2.1
2017-Sep-16 06:31N 40°39' W 074°09'1 2.5
2017-Sep-16 05:56N 40°39' W 074°11'1 2.5
2017-Sep-16 05:30N 40°38' W 074°10'0 0.2
2017-Sep-16 05:00N 40°38' W 074°10'4 8.3
2017-Sep-16 04:30N 40°39' W 074°04'1 1.2
2017-Sep-16 04:00N 40°40' W 074°04'0 0.0
2017-Sep-16 03:30N 40°40' W 074°04'0 0.0
2017-Sep-16 03:00N 40°40' W 074°04'0 0.0
2017-Sep-16 02:30N 40°40' W 074°04'0 0.0
2017-Sep-16 02:00N 40°40' W 074°04'0 0.0
2017-Sep-16 01:30N 40°40' W 074°04'0 0.0
2017-Sep-16 01:00N 40°40' W 074°04'0 0.0
2017-Sep-16 00:30N 40°40' W 074°04'0 0.0
2017-Sep-16 00:00N 40°40' W 074°04'0 0.0
2017-Sep-15 23:30N 40°40' W 074°04'0 0.0
2017-Sep-15 23:00N 40°40' W 074°04'0 0.0
2017-Sep-15 22:30N 40°40' W 074°04'2 4.2
2017-Sep-15 22:00N 40°38' W 074°04'3 5.7
2017-Sep-15 21:30N 40°39' W 074°07'2 4.0
2017-Sep-15 21:00N 40°40' W 074°08'0 0.0
2017-Sep-15 20:30N 40°40' W 074°08'0 0.0
2017-Sep-15 20:00N 40°40' W 074°08'1 1.7
2017-Sep-15 19:30N 40°40' W 074°09'0 0.6
2017-Sep-15 19:00N 40°40' W 074°09'0 0.1
2017-Sep-15 18:30N 40°40' W 074°09'1 1.4
2017-Sep-15 18:00N 40°40' W 074°08'0 0.0
2017-Sep-15 17:30N 40°40' W 074°08'0 0.0
2017-Sep-15 17:00N 40°40' W 074°08'0 0.0
2017-Sep-15 16:30N 40°40' W 074°08'0 0.0
2017-Sep-15 16:00N 40°40' W 074°08'0 0.0
2017-Sep-15 15:30N 40°40' W 074°08'0 0.0
2017-Sep-15 15:00N 40°40' W 074°08'0 0.0
2017-Sep-15 14:30N 40°40' W 074°08'0 0.0
2017-Sep-15 14:00N 40°40' W 074°08'0 0.0
2017-Sep-15 13:30N 40°40' W 074°08'1 2.7
2017-Sep-15 13:00N 40°39' W 074°09'3 6.5
2017-Sep-15 12:30N 40°37' W 074°12'5 6.3
2017-Sep-15 11:43N 40°33' W 074°15'0 0.6
2017-Sep-15 11:20N 40°32' W 074°15'2 6.9
2017-Sep-15 11:00N 40°34' W 074°13'5 9.3
2017-Sep-15 10:29N 40°39' W 074°11'0 0.3
2017-Sep-15 09:59N 40°39' W 074°11'3 5.6
2017-Sep-15 09:30N 40°39' W 074°08'3 6.7
2017-Sep-15 09:00N 40°38' W 074°03'4 7.4
2017-Sep-15 08:30N 40°39' W 074°08'1 2.7
2017-Sep-15 08:00N 40°38' W 074°10'0 0.0
2017-Sep-15 07:30N 40°38' W 074°10'0 0.0
2017-Sep-15 07:00N 40°38' W 074°10'0 0.0
2017-Sep-15 06:30N 40°38' W 074°10'0 0.0
2017-Sep-15 06:00N 40°38' W 074°10'0 0.0
2017-Sep-15 05:30N 40°38' W 074°10'0 0.0
2017-Sep-15 05:00N 40°38' W 074°10'0 0.0
2017-Sep-15 04:30N 40°38' W 074°10'0 0.0
2017-Sep-15 04:00N 40°38' W 074°10'0 0.0
2017-Sep-15 03:30N 40°38' W 074°10'0 0.0
2017-Sep-15 03:00N 40°38' W 074°10'0 0.0
2017-Sep-15 02:30N 40°38' W 074°10'0 0.0
2017-Sep-15 02:00N 40°38' W 074°10'0 0.0
2017-Sep-15 01:30N 40°38' W 074°10'0 0.0
2017-Sep-15 01:00N 40°38' W 074°10'0 0.0
2017-Sep-15 00:30N 40°38' W 074°10'0 0.0
2017-Sep-15 00:00N 40°38' W 074°10'0 0.0
2017-Sep-14 23:30N 40°38' W 074°10'0 0.0
2017-Sep-14 23:00N 40°38' W 074°10'0 0.0
2017-Sep-14 22:30N 40°38' W 074°10'0 0.0
2017-Sep-14 22:00N 40°38' W 074°10'0 0.0
2017-Sep-14 21:30N 40°38' W 074°10'0 0.0
2017-Sep-14 21:00N 40°38' W 074°10'0 0.0
2017-Sep-14 20:30N 40°38' W 074°10'0 0.0
2017-Sep-14 20:00N 40°38' W 074°10'0 0.0
2017-Sep-14 19:30N 40°38' W 074°10'0 0.0
2017-Sep-14 19:00N 40°38' W 074°10'0 0.1
2017-Sep-14 18:30N 40°39' W 074°10'2 3.1
2017-Sep-14 18:00N 40°38' W 074°12'3 4.9
2017-Sep-14 17:24N 40°35' W 074°12'0 0.1
2017-Sep-14 17:00N 40°35' W 074°13'0 0.4
2017-Sep-14 16:30N 40°35' W 074°12'0 0.0
2017-Sep-14 16:00N 40°35' W 074°12'0 0.0
2017-Sep-14 15:30N 40°35' W 074°12'0 0.0
2017-Sep-14 15:00N 40°35' W 074°12'3 4.8
2017-Sep-14 14:16N 40°33' W 074°15'1 1.0
2017-Sep-14 13:16N 40°32' W 074°15'0 0.4
2017-Sep-14 12:46N 40°31' W 074°15'0 0.3
2017-Sep-14 12:24N 40°31' W 074°15'1 3.0
2017-Sep-14 12:00N 40°33' W 074°15'5 9.5
2017-Sep-14 11:30N 40°37' W 074°12'2 3.7
2017-Sep-14 10:58N 40°39' W 074°11'2 4.6
2017-Sep-14 10:30N 40°39' W 074°08'  

Dump ship's entire track history